Time;durP1;ratioP1;P1;durP2;ratioP2;P2;SDS_P1;SDS_P2;PMS_P1;PMS_P2;Temp;Humidity;BMP_temperature;BMP_pressure;BME280_temperature;BME280_humidity;BME280_pressure;Samples;Min_cycle;Max_cycle;Signal;HPM_P1;HPM_P2
2023/08/13 00:00:50;;;;;;;0.20;0.20;;;21.60;57.70;;;;;;6268759;28;20104;-72
2023/08/13 00:03:51;;;;;;;0.30;0.30;;;21.60;57.80;;;;;;6250449;28;20029;-73
2023/08/13 00:06:51;;;;;;;0.35;0.35;;;21.60;58.50;;;;;;6250631;28;20029;-72
2023/08/13 00:09:52;;;;;;;0.47;0.40;;;21.60;57.80;;;;;;6268001;28;20126;-72
2023/08/13 00:12:53;;;;;;;0.22;0.22;;;21.60;57.80;;;;;;6268709;28;20029;-72
2023/08/13 00:15:53;;;;;;;0.35;0.35;;;21.60;57.80;;;;;;6267433;28;20029;-71
2023/08/13 00:18:54;;;;;;;0.40;0.40;;;21.60;57.80;;;;;;6268432;28;20057;-71
2023/08/13 00:21:55;;;;;;;0.20;0.20;;;21.60;57.80;;;;;;6267268;28;20120;-72
2023/08/13 00:24:56;;;;;;;0.30;0.30;;;21.60;57.80;;;;;;6268235;28;20486;-72
2023/08/13 00:27:57;;;;;;;0.30;0.30;;;21.60;57.80;;;;;;6268065;28;20037;-72
2023/08/13 00:30:57;;;;;;;0.25;0.25;;;21.60;57.90;;;;;;6268074;28;20036;-72
2023/08/13 00:33:58;;;;;;;0.30;0.30;;;21.60;57.80;;;;;;6268555;28;20041;-71
2023/08/13 00:36:59;;;;;;;0.20;0.20;;;21.60;57.80;;;;;;6268342;28;20048;-72
2023/08/13 00:39:59;;;;;;;0.30;0.30;;;21.60;57.80;;;;;;6267009;28;20033;-71
2023/08/13 00:43:00;;;;;;;0.32;0.32;;;21.60;57.90;;;;;;6268641;28;20029;-72
2023/08/13 00:46:02;;;;;;;0.47;0.32;;;21.60;57.90;;;;;;6267764;28;20826;-72
2023/08/13 00:49:03;;;;;;;0.30;0.30;;;21.60;57.90;;;;;;6266791;28;20049;-72
2023/08/13 00:52:04;;;;;;;0.22;0.22;;;21.60;57.90;;;;;;6266900;28;20064;-72
2023/08/13 00:55:06;;;;;;;0.30;0.30;;;21.60;57.90;;;;;;6270331;28;20021;-72
2023/08/13 00:58:07;;;;;;;0.25;0.25;;;21.60;57.90;;;;;;6272656;28;20029;-72
2023/08/13 01:01:08;;;;;;;0.40;0.30;;;21.60;57.90;;;;;;6270743;28;20037;-71
2023/08/13 01:04:09;;;;;;;0.30;0.30;;;21.60;57.90;;;;;;6271053;28;20052;-72
2023/08/13 01:07:29;;;;;;;0.30;0.30;;;21.60;57.90;;;;;;6272388;28;20040;-72
2023/08/13 01:10:34;;;;;;;0.40;0.38;;;21.60;57.90;;;;;;6272444;28;20052;-72
2023/08/13 01:13:38;;;;;;;;;;;21.60;58.00;;;;;;6272679;28;20028;-72
2023/08/13 01:16:42;;;;;;;0.30;0.30;;;21.60;58.60;;;;;;6270830;28;19908;-72
2023/08/13 01:19:43;;;;;;;0.30;0.30;;;21.60;57.90;;;;;;6271787;28;20029;-71
2023/08/13 01:22:48;;;;;;;0.20;0.20;;;21.60;58.00;;;;;;6272126;28;20028;-72
2023/08/13 01:25:55;;;;;;;0.20;0.20;;;21.60;58.00;;;;;;6272058;28;20025;-72
2023/08/13 01:29:03;;;;;;;0.20;0.20;;;21.60;58.00;;;;;;6271828;28;20580;-72
2023/08/13 01:32:09;;;;;;;0.20;0.20;;;21.60;58.00;;;;;;6271683;28;20124;-72
2023/08/13 01:35:10;;;;;;;0.20;0.20;;;21.60;58.00;;;;;;6271545;28;20032;-71
2023/08/13 01:38:12;;;;;;;0.45;0.22;;;21.60;58.00;;;;;;6270553;28;20120;-72
2023/08/13 01:41:12;;;;;;;0.20;0.20;;;21.60;58.00;;;;;;6270213;28;20116;-71
2023/08/13 01:44:14;;;;;;;0.65;0.40;;;21.60;58.00;;;;;;6270127;28;20398;-72
2023/08/13 01:47:15;;;;;;;0.20;0.20;;;21.60;58.00;;;;;;6271764;28;20037;-72
2023/08/13 01:50:16;;;;;;;0.30;0.30;;;21.60;58.00;;;;;;6270102;28;20045;-72
2023/08/13 01:53:16;;;;;;;0.30;0.30;;;21.60;58.00;;;;;;6253307;28;20036;-72
2023/08/13 01:56:17;;;;;;;0.30;0.30;;;21.60;58.00;;;;;;6271235;28;20083;-72
2023/08/13 01:59:18;;;;;;;0.20;0.20;;;21.60;58.00;;;;;;6271309;28;20099;-72
2023/08/13 02:02:18;;;;;;;0.20;0.20;;;21.60;58.70;;;;;;6271119;28;20520;-72
2023/08/13 02:05:19;;;;;;;0.20;0.20;;;21.60;58.00;;;;;;6270514;28;20559;-72
2023/08/13 02:08:20;;;;;;;0.30;0.22;;;21.60;58.00;;;;;;6270576;28;20017;-72
2023/08/13 02:11:21;;;;;;;0.28;0.28;;;21.60;58.10;;;;;;6270917;28;20079;-72
2023/08/13 02:14:24;;;;;;;0.30;0.30;;;21.60;58.00;;;;;;6268519;28;20029;-71
2023/08/13 02:17:26;;;;;;;0.30;0.30;;;21.60;58.00;;;;;;6252290;28;20152;-73
2023/08/13 02:20:27;;;;;;;0.20;0.20;;;21.60;58.10;;;;;;6252060;28;20091;-72
2023/08/13 02:23:29;;;;;;;0.30;0.30;;;21.60;58.10;;;;;;6270419;28;20056;-72
2023/08/13 02:26:30;;;;;;;0.20;0.20;;;21.60;58.10;;;;;;6268683;28;20033;-71
2023/08/13 02:29:31;;;;;;;0.20;0.20;;;21.60;58.00;;;;;;6261444;28;20037;-72
2023/08/13 02:32:31;;;;;;;0.30;0.30;;;21.60;58.50;;;;;;6245639;28;20029;-72
2023/08/13 02:35:32;;;;;;;0.20;0.20;;;21.60;58.10;;;;;;6245755;28;20087;-72
2023/08/13 02:38:32;;;;;;;0.30;0.30;;;21.60;58.10;;;;;;6227799;28;20375;-72
2023/08/13 02:41:33;;;;;;;0.20;0.20;;;21.60;58.10;;;;;;6245588;28;20393;-72
2023/08/13 02:44:34;;;;;;;0.20;0.20;;;21.60;58.10;;;;;;6243791;28;20029;-72
2023/08/13 02:47:34;;;;;;;0.22;0.22;;;21.60;58.10;;;;;;6244227;28;20041;-72
2023/08/13 02:50:35;;;;;;;0.25;0.25;;;21.60;58.10;;;;;;6245652;28;20471;-72
2023/08/13 02:53:36;;;;;;;0.30;0.30;;;21.60;58.10;;;;;;6243917;28;20069;-72
2023/08/13 02:56:38;;;;;;;0.17;0.17;;;21.60;58.20;;;;;;6249983;28;20031;-72
2023/08/13 02:59:38;;;;;;;0.38;0.30;;;21.60;58.20;;;;;;6270085;28;20041;-72
2023/08/13 03:02:39;;;;;;;0.35;0.30;;;21.60;58.20;;;;;;6269730;28;20021;-72
2023/08/13 03:05:40;;;;;;;0.40;0.40;;;21.60;58.10;;;;;;6268184;28;20041;-72
2023/08/13 03:08:40;;;;;;;0.10;0.10;;;21.60;58.20;;;;;;6268296;28;20076;-72
2023/08/13 03:11:41;;;;;;;0.55;0.30;;;21.60;58.20;;;;;;6268306;28;20072;-72
2023/08/13 03:14:41;;;;;;;0.22;0.22;;;21.60;58.20;;;;;;6269504;28;20506;-71
2023/08/13 03:17:45;;;;;;;0.20;0.20;;;21.60;58.20;;;;;;6267154;28;20037;-71
2023/08/13 03:20:46;;;;;;;0.20;0.20;;;21.60;58.20;;;;;;6251377;28;20037;-72
2023/08/13 03:23:46;;;;;;;0.20;0.20;;;21.60;58.20;;;;;;6268210;28;20059;-72
2023/08/13 03:26:47;;;;;;;0.40;0.40;;;21.60;58.20;;;;;;6267804;28;20040;-72
2023/08/13 03:29:48;;;;;;;0.47;0.30;;;21.60;58.20;;;;;;6267771;28;20036;-71
2023/08/13 03:32:48;;;;;;;0.30;0.30;;;21.60;58.20;;;;;;6267929;28;20051;-72
2023/08/13 03:35:49;;;;;;;0.28;0.28;;;21.60;58.20;;;;;;6269015;28;20403;-72
2023/08/13 03:38:50;;;;;;;0.20;0.20;;;21.60;58.20;;;;;;6268941;28;20044;-72
2023/08/13 03:41:51;;;;;;;0.30;0.30;;;21.60;58.20;;;;;;6269259;28;20418;-72
2023/08/13 03:44:51;;;;;;;0.20;0.20;;;21.60;58.20;;;;;;6267394;28;20028;-72
2023/08/13 03:47:54;;;;;;;0.30;0.30;;;21.60;59.00;;;;;;6251114;28;20564;-72
2023/08/13 03:50:55;;;;;;;0.55;0.20;;;21.60;58.30;;;;;;6250947;28;20562;-72
2023/08/13 03:53:56;;;;;;;0.25;0.20;;;21.60;58.30;;;;;;6268786;28;20029;-72
2023/08/13 03:56:57;;;;;;;0.40;0.40;;;21.60;58.20;;;;;;6267310;28;20048;-72
2023/08/13 04:00:41;;;;;;;0.20;0.20;;;21.60;58.30;;;;;;6268495;28;20398;-72
2023/08/13 04:03:42;;;;;;;0.20;0.20;;;21.60;58.30;;;;;;6268471;28;20083;-72
2023/08/13 04:06:43;;;;;;;0.20;0.20;;;21.60;58.30;;;;;;6267417;28;20069;-72
2023/08/13 04:09:44;;;;;;;0.30;0.30;;;21.60;58.30;;;;;;6266928;28;20029;-72
2023/08/13 04:12:45;;;;;;;0.30;0.30;;;21.60;58.30;;;;;;6268475;28;20040;-72
2023/08/13 04:15:45;;;;;;;0.20;0.20;;;21.60;58.30;;;;;;6267025;28;20073;-72
2023/08/13 04:18:46;;;;;;;0.30;0.30;;;21.60;58.30;;;;;;6267570;28;20033;-71
2023/08/13 04:21:47;;;;;;;0.20;0.20;;;21.60;58.30;;;;;;6267031;28;20503;-72
2023/08/13 04:24:51;;;;;;;0.28;0.28;;;21.60;58.30;;;;;;6268757;28;20054;-72
2023/08/13 04:27:51;;;;;;;0.20;0.20;;;21.60;58.30;;;;;;6268432;28;20040;-72
2023/08/13 04:30:52;;;;;;;0.25;0.25;;;21.60;58.30;;;;;;6271413;28;20037;-72
2023/08/13 04:33:53;;;;;;;0.30;0.30;;;21.60;58.30;;;;;;6272024;28;20516;-71
2023/08/13 04:36:53;;;;;;;0.32;0.30;;;21.60;58.30;;;;;;6271844;28;20033;-71
2023/08/13 04:39:57;;;;;;;0.40;0.30;;;21.60;58.40;;;;;;6255109;28;20032;-72
2023/08/13 04:42:58;;;;;;;0.20;0.20;;;21.60;58.40;;;;;;6273291;28;20056;-72
2023/08/13 04:45:58;;;;;;;0.30;0.30;;;21.60;58.40;;;;;;6271679;28;20037;-72
2023/08/13 04:48:59;;;;;;;0.43;0.43;;;21.60;58.40;;;;;;6272766;28;20104;-71
2023/08/13 04:52:01;;;;;;;0.40;0.40;;;21.60;58.40;;;;;;6273049;28;20482;-70
2023/08/13 04:55:03;;;;;;;0.30;0.30;;;21.60;58.40;;;;;;6271329;28;20029;-70
2023/08/13 04:58:03;;;;;;;0.93;0.20;;;21.60;58.40;;;;;;6270534;28;20029;-70
2023/08/13 05:01:05;;;;;;;0.40;0.30;;;21.60;58.40;;;;;;6270387;28;20025;-69
2023/08/13 05:04:06;;;;;;;0.30;0.30;;;21.60;58.40;;;;;;6270232;28;20044;-69
2023/08/13 05:07:07;;;;;;;0.20;0.20;;;21.60;58.40;;;;;;6272128;28;20414;-69
2023/08/13 05:10:08;;;;;;;0.30;0.30;;;21.60;58.40;;;;;;6271728;28;20029;-70
2023/08/13 05:13:09;;;;;;;0.35;0.35;;;21.60;58.40;;;;;;6271978;28;20033;-70
2023/08/13 05:16:09;;;;;;;0.30;0.30;;;21.60;58.40;;;;;;6271726;28;20044;-70
2023/08/13 05:19:10;;;;;;;0.30;0.30;;;21.60;58.40;;;;;;6271441;28;20076;-70
2023/08/13 05:22:10;;;;;;;0.40;0.40;;;21.60;58.50;;;;;;6271783;28;20060;-70
2023/08/13 05:25:11;;;;;;;0.40;0.20;;;21.60;58.40;;;;;;6271469;28;20059;-70
2023/08/13 05:28:12;;;;;;;0.63;0.30;;;21.60;58.50;;;;;;6269865;28;20028;-70
2023/08/13 05:31:13;;;;;;;0.20;0.20;;;21.60;58.40;;;;;;6269915;28;20025;-70
2023/08/13 05:34:13;;;;;;;0.20;0.20;;;21.60;58.50;;;;;;6270397;28;20134;-70
2023/08/13 05:37:14;;;;;;;0.30;0.30;;;21.60;58.50;;;;;;6269252;28;20056;-70
2023/08/13 05:40:14;;;;;;;0.47;0.40;;;21.60;58.50;;;;;;6270772;28;20660;-70
2023/08/13 05:43:15;;;;;;;0.28;0.20;;;21.60;58.50;;;;;;6269267;28;20051;-69
2023/08/13 05:46:16;;;;;;;0.40;0.30;;;21.60;58.50;;;;;;6271118;28;20033;-69
2023/08/13 05:49:16;;;;;;;0.50;0.30;;;21.60;58.50;;;;;;6254709;28;20048;-69
2023/08/13 05:52:17;;;;;;;0.30;0.30;;;21.60;58.50;;;;;;6269357;28;20032;-70
2023/08/13 05:55:18;;;;;;;0.20;0.20;;;21.60;58.50;;;;;;6269508;28;20028;-70
2023/08/13 05:58:19;;;;;;;0.30;0.30;;;21.60;58.50;;;;;;6269003;28;20041;-69
2023/08/13 06:01:20;;;;;;;0.20;0.20;;;21.60;58.50;;;;;;6270589;28;20029;-69
2023/08/13 06:04:21;;;;;;;0.30;0.30;;;21.60;58.50;;;;;;6270446;28;20052;-70
2023/08/13 06:07:21;;;;;;;0.20;0.20;;;21.60;58.50;;;;;;6269024;28;20036;-69
2023/08/13 06:10:22;;;;;;;0.30;0.25;;;21.60;58.50;;;;;;6270262;28;20091;-70
2023/08/13 06:13:23;;;;;;;0.40;0.40;;;21.60;58.50;;;;;;6269021;28;20562;-70
2023/08/13 06:16:23;;;;;;;0.38;0.30;;;21.60;58.50;;;;;;6270634;28;20033;-70
2023/08/13 06:19:24;;;;;;;0.30;0.30;;;21.60;58.50;;;;;;6269960;28;20025;-70
2023/08/13 06:22:25;;;;;;;0.25;0.25;;;21.60;58.50;;;;;;6270215;28;20028;-69
2023/08/13 06:25:26;;;;;;;0.22;0.17;;;21.60;58.50;;;;;;6270238;28;20032;-69
2023/08/13 06:28:26;;;;;;;0.28;0.20;;;21.60;58.50;;;;;;6270194;28;20028;-70
2023/08/13 06:31:27;;;;;;;0.30;0.30;;;21.60;58.50;;;;;;6268476;28;20079;-69
2023/08/13 06:34:28;;;;;;;0.20;0.20;;;21.60;58.50;;;;;;6269775;28;20087;-69
2023/08/13 06:37:28;;;;;;;0.13;0.13;;;21.60;58.60;;;;;;6269801;28;20098;-69
2023/08/13 06:40:33;;;;;;;0.20;0.20;;;21.60;58.50;;;;;;6268318;28;20040;-69
2023/08/13 06:43:34;;;;;;;0.20;0.20;;;21.60;58.50;;;;;;6268187;28;20029;-70
2023/08/13 06:46:34;;;;;;;0.30;0.30;;;21.60;58.50;;;;;;6269912;28;20398;-70
2023/08/13 06:49:35;;;;;;;0.28;0.28;;;21.60;58.50;;;;;;6269367;28;20083;-69
2023/08/13 06:52:36;;;;;;;0.20;0.20;;;21.60;58.50;;;;;;6269303;28;20028;-69
2023/08/13 06:55:37;;;;;;;0.20;0.20;;;21.60;58.60;;;;;;6268969;28;20029;-70
2023/08/13 06:58:37;;;;;;;0.43;0.20;;;21.60;58.60;;;;;;6268128;28;20769;-69
2023/08/13 07:01:38;;;;;;;0.30;0.30;;;21.60;58.60;;;;;;6267784;28;20579;-70
2023/08/13 07:04:39;;;;;;;0.77;0.30;;;21.60;58.60;;;;;;6267668;28;20488;-69
2023/08/13 07:07:39;;;;;;;0.20;0.20;;;21.60;58.60;;;;;;6269076;28;20083;-70
2023/08/13 07:10:40;;;;;;;0.30;0.30;;;21.60;58.60;;;;;;6250903;28;20091;-69
2023/08/13 07:13:42;;;;;;;0.40;0.30;;;21.60;58.60;;;;;;6268221;28;20037;-70
2023/08/13 07:16:42;;;;;;;0.30;0.30;;;21.60;58.60;;;;;;6269069;28;20163;-69
2023/08/13 07:19:44;;;;;;;0.22;0.22;;;21.60;58.60;;;;;;6268690;28;20501;-70
2023/08/13 07:22:45;;;;;;;2.25;0.30;;;21.60;58.60;;;;;;6268836;28;20589;-70
2023/08/13 07:25:46;;;;;;;0.20;0.20;;;21.60;58.60;;;;;;6250737;28;20056;-69
2023/08/13 07:28:47;;;;;;;0.40;0.20;;;21.60;58.60;;;;;;6268445;28;20029;-69
2023/08/13 07:31:48;;;;;;;0.28;0.20;;;21.60;58.50;;;;;;6250782;28;20406;-69
2023/08/13 07:34:49;;;;;;;0.28;0.28;;;21.60;58.50;;;;;;6268546;28;20040;-69
2023/08/13 07:37:49;;;;;;;0.20;0.20;;;21.60;58.50;;;;;;6250843;28;20061;-69
2023/08/13 07:40:50;;;;;;;0.30;0.30;;;21.60;58.50;;;;;;6250339;28;20559;-69
2023/08/13 07:43:52;;;;;;;0.73;0.30;;;21.60;58.50;;;;;;6268337;28;20104;-70
2023/08/13 07:46:54;;;;;;;0.30;0.30;;;21.60;58.50;;;;;;6250168;28;20493;-69
2023/08/13 07:49:55;;;;;;;0.50;0.32;;;21.60;58.50;;;;;;6250498;28;20079;-69
2023/08/13 07:52:56;;;;;;;0.30;0.30;;;21.60;58.50;;;;;;6268297;28;20037;-69
2023/08/13 07:55:57;;;;;;;0.43;0.38;;;21.60;58.50;;;;;;6268279;28;20379;-69
2023/08/13 07:58:58;;;;;;;0.22;0.22;;;21.60;58.50;;;;;;6268113;28;20033;-69
2023/08/13 08:01:59;;;;;;;0.28;0.28;;;21.60;58.60;;;;;;6250390;28;20095;-70
2023/08/13 08:05:00;;;;;;;0.43;0.40;;;21.60;58.50;;;;;;6254856;28;20410;-70
2023/08/13 08:08:01;;;;;;;0.32;0.30;;;21.60;58.60;;;;;;6258266;28;20208;-69
2023/08/13 08:11:01;;;;;;;0.30;0.30;;;21.60;58.60;;;;;;6274765;28;20064;-69
2023/08/13 08:14:02;;;;;;;1.17;0.45;;;21.60;58.50;;;;;;6276159;28;20508;-69
2023/08/13 08:17:05;;;;;;;0.30;0.30;;;21.60;58.60;;;;;;6276171;28;20126;-69
2023/08/13 08:20:07;;;;;;;0.47;0.38;;;21.60;58.60;;;;;;6258386;28;20040;-70
2023/08/13 08:23:08;;;;;;;0.70;0.43;;;21.60;58.60;;;;;;6275213;28;20112;-69
2023/08/13 08:26:08;;;;;;;0.30;0.30;;;21.60;58.60;;;;;;6276151;28;20128;-69
2023/08/13 08:29:09;;;;;;;0.70;0.60;;;21.60;58.60;;;;;;6275980;28;20029;-69
2023/08/13 08:32:10;;;;;;;0.60;0.40;;;21.60;58.60;;;;;;6274864;28;20037;-69
2023/08/13 08:35:10;;;;;;;0.40;0.40;;;21.60;58.60;;;;;;6275792;28;20032;-69
2023/08/13 08:38:12;;;;;;;0.25;0.20;;;21.60;58.60;;;;;;6276031;28;20109;-69
2023/08/13 08:41:15;;;;;;;0.73;0.40;;;21.60;58.60;;;;;;6274395;28;20775;-69
2023/08/13 08:44:20;;;;;;;0.28;0.28;;;21.60;58.60;;;;;;6276149;28;20488;-69
2023/08/13 08:47:23;;;;;;;0.50;0.30;;;21.60;58.60;;;;;;6275572;28;20110;-69
2023/08/13 08:50:23;;;;;;;0.20;0.20;;;21.60;58.60;;;;;;6276006;28;20037;-69
2023/08/13 08:53:25;;;;;;;0.28;0.20;;;21.60;58.70;;;;;;6257829;28;20040;-69
2023/08/13 08:56:26;;;;;;;0.45;0.40;;;21.60;58.60;;;;;;6291294;28;20054;-68
2023/08/13 08:59:26;;;;;;;0.38;0.32;;;21.60;58.60;;;;;;6274829;28;20410;-69
2023/08/13 09:02:27;;;;;;;0.30;0.30;;;21.60;58.60;;;;;;6275691;28;20077;-69
2023/08/13 09:05:29;;;;;;;0.57;0.50;;;21.60;58.70;;;;;;6275440;28;20072;-69
2023/08/13 09:08:30;;;;;;;0.77;0.50;;;21.60;58.70;;;;;;6275635;28;20130;-69
2023/08/13 09:11:31;;;;;;;0.30;0.30;;;21.60;58.70;;;;;;6274203;28;20025;-69
2023/08/13 09:14:33;;;;;;;0.47;0.40;;;21.60;58.70;;;;;;6275083;28;20040;-69
2023/08/13 09:17:34;;;;;;;0.35;0.28;;;21.60;58.70;;;;;;6253979;28;20033;-69
2023/08/13 09:20:46;;;;;;;0.25;0.25;;;21.60;58.70;;;;;;6271580;28;20574;-69
2023/08/13 09:23:47;;;;;;;0.28;0.28;;;21.60;58.70;;;;;;6270163;28;20037;-69
2023/08/13 09:26:48;;;;;;;0.50;0.40;;;21.60;58.70;;;;;;6269896;28;20037;-69
2023/08/13 09:29:53;;;;;;;1.13;0.40;;;21.60;58.70;;;;;;6271545;28;20041;-69
2023/08/13 09:32:57;;;;;;;0.43;0.30;;;21.60;58.70;;;;;;6269866;28;20095;-69
2023/08/13 09:35:58;;;;;;;0.20;0.20;;;21.60;58.70;;;;;;6286416;28;20505;-69
2023/08/13 09:38:58;;;;;;;0.30;0.28;;;21.60;58.70;;;;;;6271060;28;20029;-69
2023/08/13 09:42:00;;;;;;;0.30;0.30;;;21.60;58.70;;;;;;6269307;28;20036;-69
2023/08/13 09:45:08;;;;;;;0.35;0.30;;;21.60;58.70;;;;;;6271114;28;20423;-69
2023/08/13 09:48:13;;;;;;;0.30;0.30;;;21.60;58.80;;;;;;6270644;28;20045;-69
2023/08/13 09:51:15;;;;;;;0.13;0.13;;;21.60;58.80;;;;;;6270984;28;20035;-69
2023/08/13 09:54:29;;;;;;;0.30;0.28;;;21.60;58.80;;;;;;6270614;28;20048;-69
2023/08/13 09:57:32;;;;;;;0.63;0.38;;;21.60;58.70;;;;;;6270288;28;20032;-69
2023/08/13 10:00:33;;;;;;;1.27;0.40;;;21.60;58.80;;;;;;6270885;28;20025;-69
2023/08/13 10:03:35;;;;;;;0.30;0.30;;;21.60;58.80;;;;;;6269822;28;20029;-69
2023/08/13 10:06:37;;;;;;;0.25;0.25;;;21.60;58.80;;;;;;6270222;28;20151;-68
2023/08/13 10:09:40;;;;;;;0.30;0.30;;;21.60;58.80;;;;;;6270092;28;20048;-69
2023/08/13 10:12:42;;;;;;;0.22;0.22;;;21.60;58.80;;;;;;6269114;28;20128;-69
2023/08/13 10:15:44;;;;;;;0.20;0.20;;;21.60;58.80;;;;;;6270534;28;20072;-68
2023/08/13 10:18:46;;;;;;;0.30;0.30;;;21.60;58.80;;;;;;6269356;28;20037;-69
2023/08/13 10:21:56;;;;;;;0.30;0.30;;;21.60;58.80;;;;;;6270358;28;20100;-68
2023/08/13 10:24:57;;;;;;;0.25;0.25;;;21.60;58.80;;;;;;6254810;28;20025;-69
2023/08/13 10:27:59;;;;;;;0.40;0.30;;;21.60;58.80;;;;;;6260750;28;20037;-69
2023/08/13 10:31:21;;;;;;;0.10;0.10;;;21.60;58.80;;;;;;6269836;28;20040;-69
2023/08/13 10:34:46;;;;;;;0.40;0.38;;;21.60;58.80;;;;;;6270152;28;20041;-68
2023/08/13 10:37:53;;;;;;;0.30;0.20;;;21.60;58.90;;;;;;6250918;28;20044;-68
2023/08/13 10:40:59;;;;;;;0.85;0.40;;;21.60;58.80;;;;;;6269529;28;20092;-68
2023/08/13 10:44:00;;;;;;;0.28;0.28;;;21.60;58.80;;;;;;6269647;28;20025;-68
2023/08/13 10:47:02;;;;;;;0.20;0.20;;;21.60;58.80;;;;;;6269196;28;20127;-69
2023/08/13 10:50:21;;;;;;;0.40;0.40;;;21.60;58.80;;;;;;6269671;28;20108;-68
2023/08/13 10:53:24;;;;;;;0.28;0.28;;;21.60;58.90;;;;;;6270024;28;20493;-68
2023/08/13 10:56:29;;;;;;;0.30;0.30;;;21.60;58.90;;;;;;6268668;28;20037;-69
2023/08/13 10:59:40;;;;;;;0.52;0.40;;;21.60;58.90;;;;;;6269346;28;20060;-69
2023/08/13 11:02:44;;;;;;;0.30;0.30;;;21.60;58.90;;;;;;6284307;28;20025;-69
2023/08/13 11:05:46;;;;;;;0.30;0.30;;;21.60;58.90;;;;;;6269613;28;20113;-69
2023/08/13 11:08:46;;;;;;;0.32;0.32;;;21.60;58.90;;;;;;6270122;28;20025;-71
2023/08/13 11:11:47;;;;;;;0.22;0.22;;;21.60;58.90;;;;;;6268563;28;20079;-70
2023/08/13 11:14:48;;;;;;;0.30;0.30;;;21.60;58.90;;;;;;6269258;28;20721;-71
2023/08/13 11:17:48;;;;;;;0.38;0.30;;;21.60;58.90;;;;;;6267468;28;20029;-70
2023/08/13 11:20:50;;;;;;;0.73;0.22;;;21.60;58.90;;;;;;6268556;28;20037;-70
2023/08/13 11:23:52;;;;;;;0.20;0.20;;;21.60;58.90;;;;;;6267520;28;20044;-70
2023/08/13 11:26:52;;;;;;;0.28;0.28;;;21.60;58.90;;;;;;6268401;28;20095;-71
2023/08/13 11:29:53;;;;;;;0.20;0.20;;;21.60;58.90;;;;;;6259281;28;20564;-70
2023/08/13 11:32:54;;;;;;;0.22;0.20;;;21.60;58.90;;;;;;6247702;28;20029;-70
2023/08/13 11:35:56;;;;;;;0.25;0.25;;;21.60;58.90;;;;;;6268967;28;20122;-71
2023/08/13 11:38:56;;;;;;;0.45;0.40;;;21.60;58.90;;;;;;6268248;28;20031;-70
2023/08/13 11:42:07;;;;;;;0.30;0.20;;;21.60;58.90;;;;;;6267776;28;20030;-70
2023/08/13 11:45:12;;;;;;;0.30;0.30;;;21.60;58.90;;;;;;6267951;28;20036;-70
2023/08/13 11:48:18;;;;;;;0.20;0.20;;;21.60;58.90;;;;;;6266680;28;20083;-70
2023/08/13 11:51:22;;;;;;;0.30;0.30;;;21.60;59.00;;;;;;6267193;28;20056;-70
2023/08/13 11:54:24;;;;;;;0.40;0.30;;;21.60;58.90;;;;;;6266976;28;20610;-70
2023/08/13 11:57:26;;;;;;;0.38;0.35;;;21.60;58.90;;;;;;6266084;28;20037;-70
2023/08/13 12:00:27;;;;;;;0.15;0.15;;;21.60;59.00;;;;;;6267131;28;20025;-71
2023/08/13 12:03:35;;;;;;;0.28;0.28;;;21.60;58.90;;;;;;6268067;28;20087;-71
2023/08/13 12:06:35;;;;;;;0.20;0.20;;;21.60;58.90;;;;;;6250443;28;20059;-70
2023/08/13 12:09:36;;;;;;;0.20;0.20;;;21.60;59.00;;;;;;6250134;28;20033;-70
2023/08/13 12:12:37;;;;;;;0.20;0.20;;;21.60;59.00;;;;;;6268039;28;20119;-71
2023/08/13 12:15:37;;;;;;;0.40;0.30;;;21.60;59.00;;;;;;6267643;28;20039;-70
2023/08/13 12:18:39;;;;;;;0.45;0.30;;;21.60;59.00;;;;;;6249740;28;20563;-70
2023/08/13 12:21:39;;;;;;;0.52;0.30;;;21.60;59.00;;;;;;6250168;28;20069;-70
2023/08/13 12:24:40;;;;;;;0.20;0.20;;;21.60;59.00;;;;;;6249884;28;20059;-71
2023/08/13 12:27:42;;;;;;;0.30;0.30;;;21.60;59.00;;;;;;6249762;28;20124;-70
2023/08/13 12:30:43;;;;;;;0.20;0.20;;;21.60;59.00;;;;;;6249432;28;20524;-70
2023/08/13 12:33:45;;;;;;;0.25;0.25;;;21.60;59.00;;;;;;6249737;28;20037;-70
2023/08/13 12:36:47;;;;;;;0.20;0.20;;;21.60;59.00;;;;;;6249893;28;20044;-70
2023/08/13 12:39:49;;;;;;;0.20;0.20;;;21.60;59.00;;;;;;6267693;28;20115;-70
2023/08/13 12:42:50;;;;;;;0.30;0.30;;;21.60;59.00;;;;;;6249780;28;20036;-70
2023/08/13 12:45:51;;;;;;;1.50;0.40;;;21.60;59.00;;;;;;6267457;28;20029;-70
2023/08/13 12:48:52;;;;;;;0.30;0.30;;;21.60;59.00;;;;;;6267662;28;20029;-70
2023/08/13 12:51:52;;;;;;;0.30;0.30;;;21.60;59.00;;;;;;6253513;28;20447;-71
2023/08/13 12:54:53;;;;;;;0.20;0.20;;;21.60;59.00;;;;;;6254913;28;20028;-70
2023/08/13 12:57:54;;;;;;;0.30;0.20;;;21.60;59.00;;;;;;6272811;28;20159;-72
2023/08/13 13:00:54;;;;;;;0.30;0.25;;;21.60;59.00;;;;;;6255560;28;20029;-69
2023/08/13 13:03:55;;;;;;;0.20;0.20;;;21.60;59.00;;;;;;6272361;28;20032;-70
2023/08/13 13:06:57;;;;;;;0.85;0.30;;;21.60;59.00;;;;;;6272653;28;20037;-69
2023/08/13 13:09:57;;;;;;;0.20;0.20;;;21.60;59.00;;;;;;6273128;28;20033;-72
2023/08/13 13:12:58;;;;;;;0.30;0.30;;;21.60;59.00;;;;;;6273213;28;20033;-69
2023/08/13 13:15:59;;;;;;;0.20;0.20;;;21.60;59.00;;;;;;6254437;28;20429;-71
2023/08/13 13:19:00;;;;;;;0.22;0.20;;;21.60;59.00;;;;;;6254170;28;20513;-70
2023/08/13 13:22:01;;;;;;;0.20;0.20;;;21.60;59.00;;;;;;6254596;28;20075;-71
2023/08/13 13:25:02;;;;;;;0.30;0.30;;;21.50;58.90;;;;;;6271957;28;20033;-69
2023/08/13 13:28:03;;;;;;;0.20;0.20;;;21.60;59.00;;;;;;6253697;28;20029;-69
2023/08/13 13:31:04;;;;;;;0.20;0.20;;;21.60;59.00;;;;;;6253167;28;20060;-69
2023/08/13 13:34:05;;;;;;;0.20;0.20;;;21.60;59.00;;;;;;6270985;28;20029;-68
2023/08/13 13:37:07;;;;;;;0.20;0.20;;;21.60;59.00;;;;;;6270884;28;20509;-69
2023/08/13 13:40:09;;;;;;;0.28;0.28;;;21.60;59.00;;;;;;6271089;28;20055;-69
2023/08/13 13:43:10;;;;;;;0.30;0.30;;;21.60;59.00;;;;;;6252726;28;20047;-69
2023/08/13 13:46:10;;;;;;;0.38;0.38;;;21.60;59.00;;;;;;6270751;28;20033;-69
2023/08/13 13:49:11;;;;;;;0.28;0.28;;;21.50;58.90;;;;;;6271139;28;20044;-69
2023/08/13 13:52:12;;;;;;;0.20;0.20;;;21.60;59.00;;;;;;6270736;28;20385;-69
2023/08/13 13:55:12;;;;;;;0.20;0.20;;;21.60;59.00;;;;;;6253100;28;20394;-69
2023/08/13 13:58:13;;;;;;;0.52;0.30;;;21.60;59.00;;;;;;6270398;28;20033;-69
2023/08/13 14:01:14;;;;;;;0.20;0.20;;;21.60;59.00;;;;;;6252126;28;20029;-69
2023/08/13 14:04:14;;;;;;;0.10;0.10;;;21.60;59.00;;;;;;6251842;28;20249;-68
2023/08/13 14:07:15;;;;;;;0.20;0.20;;;21.50;59.00;;;;;;6270570;28;20434;-68
2023/08/13 14:10:16;;;;;;;0.20;0.20;;;21.60;59.00;;;;;;6251834;28;20040;-69
2023/08/13 14:13:16;;;;;;;0.13;0.13;;;21.60;59.80;;;;;;6252393;28;20033;-69
2023/08/13 14:16:17;;;;;;;0.22;0.22;;;21.60;59.00;;;;;;6251976;28;20067;-68
2023/08/13 14:19:18;;;;;;;0.50;0.20;;;21.60;59.00;;;;;;6252132;28;20398;-69
2023/08/13 14:22:18;;;;;;;0.30;0.20;;;21.60;59.10;;;;;;6270264;28;20182;-69
2023/08/13 14:25:19;;;;;;;0.17;0.17;;;21.60;59.00;;;;;;6251792;28;20040;-69
2023/08/13 14:28:20;;;;;;;0.20;0.20;;;21.60;59.00;;;;;;6251927;28;20033;-69
2023/08/13 14:31:21;;;;;;;0.45;0.30;;;21.60;59.10;;;;;;6252120;28;20043;-69
2023/08/13 14:34:22;;;;;;;0.20;0.20;;;21.60;59.10;;;;;;6251799;28;20036;-69
2023/08/13 14:37:23;;;;;;;0.17;0.17;;;21.50;59.00;;;;;;6251292;28;20561;-69
2023/08/13 14:40:23;;;;;;;0.20;0.15;;;21.60;59.10;;;;;;6252118;28;20033;-69
2023/08/13 14:43:24;;;;;;;0.40;0.20;;;21.60;59.10;;;;;;6251677;28;20445;-69
2023/08/13 14:46:25;;;;;;;0.20;0.20;;;21.60;59.10;;;;;;6251334;28;20033;-69
2023/08/13 14:49:26;;;;;;;0.10;0.10;;;21.60;59.00;;;;;;6251395;28;20494;-69
2023/08/13 14:52:26;;;;;;;0.20;0.20;;;21.60;59.10;;;;;;6269420;28;20116;-69
2023/08/13 14:55:27;;;;;;;0.30;0.30;;;21.50;59.00;;;;;;6251692;28;20037;-69
2023/08/13 14:58:28;;;;;;;0.20;0.20;;;21.60;59.10;;;;;;6269065;28;20133;-69
2023/08/13 15:01:29;;;;;;;0.20;0.20;;;21.60;59.10;;;;;;6251404;28;20464;-69
2023/08/13 15:04:29;;;;;;;0.20;0.20;;;21.60;59.10;;;;;;6250762;28;20044;-69
2023/08/13 15:07:30;;;;;;;0.10;0.10;;;21.60;59.10;;;;;;6251099;28;20052;-69
2023/08/13 15:10:31;;;;;;;0.22;0.22;;;21.60;59.10;;;;;;6269415;28;20448;-69
2023/08/13 15:13:33;;;;;;;0.20;0.20;;;21.60;59.80;;;;;;6250973;28;20032;-69
2023/08/13 15:16:33;;;;;;;0.22;0.20;;;21.60;59.10;;;;;;6251061;28;20029;-69
2023/08/13 15:19:34;;;;;;;0.30;0.30;;;21.60;59.10;;;;;;6250753;28;20452;-69
2023/08/13 15:22:35;;;;;;;0.30;0.20;;;21.60;59.80;;;;;;6269082;28;20021;-69
2023/08/13 15:25:36;;;;;;;0.20;0.20;;;21.60;59.10;;;;;;6268417;28;20033;-69
2023/08/13 15:28:37;;;;;;;0.20;0.20;;;21.60;59.10;;;;;;6250761;28;20082;-69
2023/08/13 15:31:37;;;;;;;0.20;0.20;;;21.60;59.10;;;;;;6268815;28;20037;-69
2023/08/13 15:34:38;;;;;;;0.20;0.20;;;21.60;59.10;;;;;;6250781;28;20032;-69
2023/08/13 15:37:39;;;;;;;0.10;0.10;;;21.60;59.10;;;;;;6268085;28;20394;-69
2023/08/13 15:40:39;;;;;;;0.20;0.20;;;21.60;59.10;;;;;;6268913;28;20505;-69
2023/08/13 15:43:40;;;;;;;0.10;0.10;;;21.60;59.10;;;;;;6250801;28;20031;-69
2023/08/13 15:46:40;;;;;;;0.20;0.20;;;21.60;59.10;;;;;;6268341;28;20537;-69